Terminal Aerodrome Forecast
Issued by NWS

Home | Current Version | Previous Version | Graphics & Text | Print | Product List | Glossary On
Versions: 1 2 3 4 5 6 7 8 9 10 11 12 13 14 15
656
FTUS43 KICT 211135
TAFHUT
TAF
KHUT 211135Z 2112/2212 19012KT P6SM SKC
     FM211500 20015G23KT P6SM SKC
     FM220100 17008KT P6SM SKC
     FM220800 19010KT P6SM SKC WS020/21040KT=

USA.gov is the U.S. government's official web portal to all federal, state and local government web resources and services.